createdAt,value
2022-09-03T01:00:07.795Z,95742.38
2022-09-03T01:01:19.524Z,95741.94
2022-09-03T01:02:28.759Z,95741.50
2022-09-03T01:03:45.381Z,95741.78
2022-09-03T01:05:02.987Z,95738.75
2022-09-03T01:06:18.926Z,95740.91
2022-09-03T01:07:34.278Z,95743.19
2022-09-03T01:08:57.780Z,95738.38
2022-09-03T01:10:15.994Z,95736.75
2022-09-03T01:11:27.595Z,95735.81
2022-09-03T01:12:41.518Z,95741.56
2022-09-03T01:13:50.081Z,95736.94
2022-09-03T01:15:07.510Z,95746.44
2022-09-03T01:16:22.245Z,95740.88
2022-09-03T01:17:39.794Z,95739.00
2022-09-03T01:18:53.321Z,95743.03
2022-09-03T01:20:20.958Z,95749.91
2022-09-03T01:21:43.813Z,95742.22
2022-09-03T01:23:28.659Z,95741.38
2022-09-03T01:25:10.884Z,95740.94
2022-09-03T01:26:33.822Z,95737.38
2022-09-03T01:27:48.693Z,95739.75
2022-09-03T01:29:03.085Z,95738.09
2022-09-03T01:30:10.540Z,95734.28
2022-09-03T01:31:24.366Z,95737.84
2022-09-03T01:32:40.107Z,95740.47
2022-09-03T01:33:50.602Z,95736.91
2022-09-03T01:35:04.136Z,95739.31
2022-09-03T01:36:13.167Z,95735.03
2022-09-03T01:37:28.139Z,95732.91
2022-09-03T01:38:42.858Z,95736.84
2022-09-03T01:39:58.699Z,95730.31
2022-09-03T01:41:26.681Z,95725.34
2022-09-03T01:42:43.115Z,95726.97
2022-09-03T01:43:54.833Z,95725.34
2022-09-03T01:45:21.625Z,95725.34
2022-09-03T01:46:26.128Z,95721.75
2022-09-03T01:47:41.010Z,95719.88
2022-09-03T01:48:49.760Z,95727.59
2022-09-03T01:50:05.773Z,95716.94
2022-09-03T01:51:19.995Z,95723.81
2022-09-03T01:52:38.987Z,95730.69
2022-09-03T01:54:02.028Z,95730.00
2022-09-03T01:55:22.841Z,95733.28
2022-09-03T01:56:35.973Z,95731.53
2022-09-03T01:57:56.265Z,95730.59
2022-09-03T01:59:07.289Z,95733.44
2022-09-03T02:00:13.962Z,95736.06
2022-09-03T02:01:26.785Z,95738.44
2022-09-03T02:02:33.401Z,95727.84
2022-09-03T02:03:40.817Z,95733.22
2022-09-03T02:04:57.350Z,95740.09
2022-09-03T02:06:03.893Z,95736.56
2022-09-03T02:07:06.745Z,95738.19
2022-09-03T02:08:13.461Z,95740.81
2022-09-03T02:09:15.550Z,95736.56
2022-09-03T02:10:22.484Z,95740.34
2022-09-03T02:11:24.916Z,95735.34
2022-09-03T02:12:33.800Z,95733.69
2022-09-03T02:13:39.823Z,95733.81
2022-09-03T02:14:45.181Z,95744.97
2022-09-03T02:15:50.546Z,95737.03
2022-09-03T02:17:00.521Z,95734.19
2022-09-03T02:18:06.334Z,95735.13
2022-09-03T02:19:14.804Z,95732.63
2022-09-03T02:20:20.976Z,95736.09
2022-09-03T02:21:27.372Z,95730.13
2022-09-03T02:22:29.465Z,95723.03
2022-09-03T02:23:34.130Z,95730.28
2022-09-03T02:24:36.519Z,95732.75
2022-09-03T02:25:44.368Z,95727.66
2022-09-03T02:26:46.991Z,95730.38
2022-09-03T02:27:53.465Z,95734.66
2022-09-03T02:28:57.071Z,95736.56
2022-09-03T02:30:03.002Z,95737.50
2022-09-03T02:31:05.591Z,95742.63
2022-09-03T02:32:15.009Z,95741.78
2022-09-03T02:33:17.309Z,95736.81
2022-09-03T02:34:21.938Z,95742.72
2022-09-03T02:35:23.973Z,95737.50
2022-09-03T02:36:32.550Z,95741.91
2022-09-03T02:37:35.074Z,95749.66
2022-09-03T02:38:39.846Z,95741.91
2022-09-03T02:39:42.435Z,95747.03
2022-09-03T02:40:47.262Z,95747.03
2022-09-03T02:41:54.989Z,95751.28
2022-09-03T02:42:59.728Z,95748.09
2022-09-03T02:44:06.612Z,95745.47
2022-09-03T02:45:22.634Z,95748.19
2022-09-03T02:46:32.640Z,95745.34
2022-09-03T02:47:39.523Z,95744.66
2022-09-03T02:48:44.308Z,95741.19
2022-09-03T02:49:46.958Z,95743.78
2022-09-03T02:50:51.765Z,95739.44
2022-09-03T02:51:58.558Z,95737.75
2022-09-03T02:53:03.173Z,95741.31
2022-09-03T02:54:05.734Z,95737.50
2022-09-03T02:55:11.434Z,95739.78
2022-09-03T02:56:13.945Z,95739.88
2022-09-03T02:57:23.851Z,95746.06
2022-09-03T02:58:31.669Z,95734.19
2022-09-03T02:59:36.455Z,95736.09
2022-09-03T03:00:38.962Z,95736.09
2022-09-03T03:01:43.569Z,95732.75
2022-09-03T03:02:52.531Z,95722.31
2022-09-03T03:03:57.206Z,95733.34
2022-09-03T03:04:59.435Z,95736.09
2022-09-03T03:06:06.798Z,95728.97
2022-09-03T03:07:08.839Z,95734.19
2022-09-03T03:08:15.342Z,95735.25
2022-09-03T03:09:17.525Z,95729.31
2022-09-03T03:10:22.165Z,95739.78
2022-09-03T03:11:26.417Z,95733.94
2022-09-03T03:12:31.459Z,95735.75
2022-09-03T03:13:34.291Z,95739.19
2022-09-03T03:14:41.256Z,95732.28
2022-09-03T03:15:44.365Z,95734.19
2022-09-03T03:16:49.048Z,95737.03
2022-09-03T03:17:56.202Z,95734.75
2022-09-03T03:19:00.936Z,95736.88
2022-09-03T03:20:04.014Z,95733.69
2022-09-03T03:21:10.001Z,95731.31
2022-09-03T03:22:12.052Z,95735.91
2022-09-03T03:23:16.888Z,95744.09
2022-09-03T03:24:19.044Z,95749.78
2022-09-03T03:25:23.729Z,95750.13
2022-09-03T03:26:25.755Z,95747.84
2022-09-03T03:27:32.516Z,95749.84
2022-09-03T03:28:35.001Z,95747.47
2022-09-03T03:29:39.689Z,95747.69
2022-09-03T03:30:43.129Z,95756.47
2022-09-03T03:31:47.826Z,95758.25
2022-09-03T03:32:50.128Z,95758.25
2022-09-03T03:33:59.199Z,95753.84
2022-09-03T03:35:01.196Z,95759.94
2022-09-03T03:36:09.866Z,95758.25
2022-09-03T03:37:14.767Z,95760.75
2022-09-03T03:38:16.820Z,95762.41
2022-09-03T03:39:21.409Z,95760.63
2022-09-03T03:40:23.500Z,95757.09
2022-09-03T03:41:34.472Z,95756.97
2022-09-03T03:42:36.640Z,95752.56
2022-09-03T03:43:41.490Z,95758.50
2022-09-03T03:44:44.092Z,95757.59
2022-09-03T03:45:59.560Z,95753.28
2022-09-03T03:47:02.450Z,95757.59
2022-09-03T03:48:07.162Z,95762.81
2022-09-03T03:49:12.062Z,95760.28
2022-09-03T03:50:17.018Z,95765.53
2022-09-03T03:51:19.813Z,95773.44
2022-09-03T03:52:24.378Z,95767.53
2022-09-03T03:53:26.387Z,95760.75
2022-09-03T03:54:31.445Z,95762.53
2022-09-03T03:55:35.330Z,95765.38
2022-09-03T03:56:40.099Z,95769.75
2022-09-03T03:57:42.170Z,95759.53
2022-09-03T03:58:48.536Z,95756.22
2022-09-03T03:59:50.963Z,95764.97
2022-09-03T04:00:56.104Z,95766.03
2022-09-03T04:01:58.329Z,95767.00
2022-09-03T04:03:03.049Z,95762.81
2022-09-03T04:04:08.170Z,95756.78
2022-09-03T04:05:15.056Z,95760.53
2022-09-03T04:06:22.285Z,95757.31
2022-09-03T04:07:24.333Z,95755.72
2022-09-03T04:08:29.464Z,95767.13
2022-09-03T04:09:31.714Z,95764.97
2022-09-03T04:10:36.335Z,95765.06
2022-09-03T04:11:39.138Z,95769.78
2022-09-03T04:12:43.875Z,95771.78
2022-09-03T04:13:47.052Z,95770.31
2022-09-03T04:14:51.638Z,95772.22
2022-09-03T04:16:01.079Z,95769.94
2022-09-03T04:17:05.811Z,95769.19
2022-09-03T04:18:08.663Z,95772.03
2022-09-03T04:19:13.503Z,95769.53
2022-09-03T04:20:18.158Z,95768.72
2022-09-03T04:21:24.814Z,95763.50
2022-09-03T04:22:29.693Z,95764.34
2022-09-03T04:23:35.229Z,95766.31
2022-09-03T04:24:39.863Z,95763.69
2022-09-03T04:25:42.373Z,95764.56
2022-09-03T04:26:47.362Z,95759.34
2022-09-03T04:27:52.627Z,95759.13
2022-09-03T04:28:57.591Z,95751.06
2022-09-03T04:30:00.144Z,95757.22
2022-09-03T04:31:08.461Z,95758.44
2022-09-03T04:32:26.070Z,95754.88
2022-09-03T04:33:30.938Z,95758.44
2022-09-03T04:34:33.016Z,95751.56
2022-09-03T04:35:41.141Z,95753.22
2022-09-03T04:36:43.233Z,95759.28
2022-09-03T04:37:47.864Z,95756.66
2022-09-03T04:38:51.917Z,95755.84
2022-09-03T04:39:56.797Z,95758.22
2022-09-03T04:40:59.946Z,95762.63
2022-09-03T04:42:04.661Z,95754.88
2022-09-03T04:43:06.843Z,95762.41
2022-09-03T04:44:11.458Z,95774.47
2022-09-03T04:45:18.695Z,95766.78
2022-09-03T04:46:25.043Z,95766.78
2022-09-03T04:47:28.274Z,95771.16
2022-09-03T04:48:35.253Z,95776.38
2022-09-03T04:49:40.301Z,95772.09
2022-09-03T04:50:47.478Z,95773.88
2022-09-03T04:51:50.253Z,95779.00
2022-09-03T04:52:56.401Z,95772.91
2022-09-03T04:54:02.742Z,95777.22
2022-09-03T04:55:06.345Z,95764.91
2022-09-03T04:56:16.055Z,95760.16
2022-09-03T04:57:18.132Z,95760.66
2022-09-03T04:58:22.808Z,95761.28
2022-09-03T04:59:25.307Z,95758.56
2022-09-03T05:00:30.271Z,95759.41
2022-09-03T05:01:34.337Z,95758.34
2022-09-03T05:02:40.026Z,95760.00
2022-09-03T05:03:42.189Z,95759.72
2022-09-03T05:04:48.451Z,95760.31
2022-09-03T05:05:57.005Z,95773.03
2022-09-03T05:07:01.656Z,95771.97
2022-09-03T05:08:04.375Z,95775.19
2022-09-03T05:09:09.584Z,95770.59
2022-09-03T05:10:16.396Z,95770.38
2022-09-03T05:11:21.588Z,95770.97
2022-09-03T05:12:23.721Z,95766.25
2022-09-03T05:13:28.695Z,95772.78
2022-09-03T05:14:33.305Z,95760.34
2022-09-03T05:15:35.540Z,95761.66
2022-09-03T05:16:40.332Z,95763.09
2022-09-03T05:17:42.441Z,95757.66
2022-09-03T05:18:47.928Z,95757.19
2022-09-03T05:19:50.055Z,95758.59
2022-09-03T05:21:04.490Z,95760.88
2022-09-03T05:22:08.171Z,95763.16
2022-09-03T05:23:13.077Z,95768.97
2022-09-03T05:24:15.547Z,95766.97
2022-09-03T05:25:20.190Z,95767.78
2022-09-03T05:26:24.876Z,95768.63
2022-09-03T05:27:29.535Z,95769.34
2022-09-03T05:28:31.882Z,95771.94
2022-09-03T05:29:36.668Z,95766.50
2022-09-03T05:30:38.750Z,95772.53
2022-09-03T05:31:43.390Z,95761.16
2022-09-03T05:32:45.442Z,95770.41
2022-09-03T05:33:53.375Z,95756.53
2022-09-03T05:34:55.839Z,95763.19
2022-09-03T05:36:08.820Z,95759.63
2022-09-03T05:37:11.822Z,95760.44
2022-09-03T05:38:17.205Z,95753.34
2022-09-03T05:39:19.296Z,95754.16
2022-09-03T05:40:24.053Z,95761.03
2022-09-03T05:41:27.461Z,95759.16
2022-09-03T05:42:32.579Z,95764.13
2022-09-03T05:43:35.298Z,95758.66
2022-09-03T05:44:39.944Z,95757.50
2022-09-03T05:45:42.296Z,95754.50
2022-09-03T05:46:47.274Z,95754.16
2022-09-03T05:47:49.457Z,95755.59
2022-09-03T05:48:54.368Z,95757.03
2022-09-03T05:49:56.418Z,95753.22
2022-09-03T05:51:08.823Z,95757.38
2022-09-03T05:52:13.594Z,95754.44
2022-09-03T05:53:17.584Z,95756.78
2022-09-03T05:54:22.238Z,95755.84
2022-09-03T05:55:24.315Z,95753.09
2022-09-03T05:56:30.857Z,95754.75
2022-09-03T05:57:33.429Z,95756.44
2022-09-03T05:58:43.600Z,95764.16
2022-09-03T05:59:48.275Z,95762.25
2022-09-03T06:00:50.343Z,95756.91
2022-09-03T06:01:59.395Z,95763.44
2022-09-03T06:03:02.354Z,95764.13
2022-09-03T06:04:08.716Z,95762.34
2022-09-03T06:05:10.780Z,95770.19
2022-09-03T06:06:18.590Z,95772.47
2022-09-03T06:07:21.476Z,95773.19
2022-09-03T06:08:26.566Z,95773.91
2022-09-03T06:09:31.226Z,95770.06
2022-09-03T06:10:40.715Z,95775.78
2022-09-03T06:11:46.192Z,95767.53
2022-09-03T06:12:51.889Z,95767.91
2022-09-03T06:13:56.850Z,95779.66
2022-09-03T06:14:59.121Z,95777.25
2022-09-03T06:16:06.035Z,95774.13
2022-09-03T06:17:11.334Z,95776.00
2022-09-03T06:18:16.130Z,95772.06
2022-09-03T06:19:18.896Z,95776.78
2022-09-03T06:20:27.792Z,95774.63
2022-09-03T06:21:35.898Z,95765.47
2022-09-03T06:22:37.951Z,95770.06
2022-09-03T06:23:45.784Z,95768.63
2022-09-03T06:24:51.383Z,95769.75
2022-09-03T06:26:05.082Z,95771.88
2022-09-03T06:27:10.249Z,95778.28
2022-09-03T06:28:12.391Z,95773.59
2022-09-03T06:29:18.546Z,95772.13
2022-09-03T06:30:20.793Z,95776.97
2022-09-03T06:31:26.083Z,95778.91
2022-09-03T06:32:29.440Z,95782.22
2022-09-03T06:33:36.019Z,95777.69
2022-09-03T06:34:40.818Z,95779.78
2022-09-03T06:35:43.404Z,95774.88
2022-09-03T06:36:51.308Z,95786.03
2022-09-03T06:37:56.585Z,95789.38
2022-09-03T06:39:02.350Z,95784.00
2022-09-03T06:40:05.002Z,95782.22
2022-09-03T06:41:11.218Z,95782.78
2022-09-03T06:42:13.474Z,95784.31
2022-09-03T06:43:18.450Z,95779.63
2022-09-03T06:44:20.688Z,95786.53
2022-09-03T06:45:25.387Z,95777.97
2022-09-03T06:46:30.032Z,95779.88
2022-09-03T06:47:35.127Z,95782.50
2022-09-03T06:48:40.857Z,95788.72
2022-09-03T06:49:45.513Z,95785.13
2022-09-03T06:50:54.294Z,95790.63
2022-09-03T06:52:01.456Z,95795.88
2022-09-03T06:53:03.544Z,95789.25
2022-09-03T06:54:10.698Z,95791.44
2022-09-03T06:55:12.836Z,95787.09
2022-09-03T06:56:19.808Z,95783.97
2022-09-03T06:57:24.441Z,95789.53
2022-09-03T06:58:30.157Z,95790.28
2022-09-03T06:59:34.843Z,95787.16
2022-09-03T07:00:37.002Z,95786.91
2022-09-03T07:01:45.291Z,95785.16
2022-09-03T07:02:48.870Z,95785.16
2022-09-03T07:03:58.161Z,95781.59
2022-09-03T07:05:00.547Z,95779.81
2022-09-03T07:06:05.616Z,95784.47
2022-09-03T07:07:13.382Z,95777.78
2022-09-03T07:08:18.046Z,95772.47
2022-09-03T07:09:22.721Z,95777.75
2022-09-03T07:10:26.158Z,95779.84
2022-09-03T07:11:35.919Z,95778.59
2022-09-03T07:12:37.983Z,95778.72
2022-09-03T07:13:44.327Z,95775.44
2022-09-03T07:14:51.184Z,95780.41
2022-09-03T07:16:00.264Z,95776.19
2022-09-03T07:17:05.080Z,95770.91
2022-09-03T07:18:07.154Z,95778.69
2022-09-03T07:19:13.513Z,95775.94
2022-09-03T07:20:15.785Z,95784.91
2022-09-03T07:21:22.465Z,95782.13
2022-09-03T07:22:31.733Z,95775.78
2022-09-03T07:23:37.155Z,95767.78
2022-09-03T07:24:46.939Z,95773.31
2022-09-03T07:25:53.784Z,95781.88
2022-09-03T07:26:58.421Z,95773.59
2022-09-03T07:28:00.564Z,95779.38
2022-09-03T07:29:05.815Z,95778.03
2022-09-03T07:30:10.460Z,95782.19
2022-09-03T07:31:19.566Z,95770.00
2022-09-03T07:32:24.217Z,95775.38
2022-09-03T07:33:26.397Z,95780.22
2022-09-03T07:34:31.691Z,95780.22
2022-09-03T07:35:36.851Z,95780.66
2022-09-03T07:36:43.367Z,95776.63
2022-09-03T07:37:48.047Z,95781.59
2022-09-03T07:38:53.034Z,95786.16
2022-09-03T07:39:58.632Z,95790.31
2022-09-03T07:41:02.081Z,95788.69
2022-09-03T07:42:11.128Z,95790.72
2022-09-03T07:43:13.398Z,95791.56
2022-09-03T07:44:22.952Z,95786.00
2022-09-03T07:45:25.116Z,95793.09
2022-09-03T07:46:30.522Z,95785.06
2022-09-03T07:47:34.722Z,95780.22
2022-09-03T07:48:39.351Z,95781.06
2022-09-03T07:49:41.407Z,95787.97
2022-09-03T07:50:47.866Z,95782.69
2022-09-03T07:51:52.453Z,95791.31
2022-09-03T07:53:02.029Z,95781.31
2022-09-03T07:54:10.189Z,95777.75
2022-09-03T07:55:12.302Z,95780.53
2022-09-03T07:56:18.088Z,95778.16
2022-09-03T07:57:21.089Z,95782.97
2022-09-03T07:58:26.118Z,95789.19
2022-09-03T07:59:31.512Z,95785.50
2022-09-03T08:00:34.191Z,95795.47
2022-09-03T08:01:41.701Z,95783.41
2022-09-03T08:02:46.223Z,95787.84
2022-09-03T08:03:53.274Z,95786.13
2022-09-03T08:04:55.364Z,95786.53
2022-09-03T08:06:04.133Z,95791.22
2022-09-03T08:07:08.764Z,95782.50
2022-09-03T08:08:15.508Z,95793.25
2022-09-03T08:09:21.075Z,95788.41
2022-09-03T08:10:24.772Z,95789.50
2022-09-03T08:11:31.544Z,95789.59
2022-09-03T08:12:33.812Z,95793.38
2022-09-03T08:13:38.746Z,95795.00
2022-09-03T08:14:40.792Z,95788.59
2022-09-03T08:15:45.444Z,95793.44
2022-09-03T08:16:48.182Z,95783.31
2022-09-03T08:17:52.954Z,95792.97
2022-09-03T08:18:55.035Z,95797.25
2022-09-03T08:20:00.425Z,95789.41
2022-09-03T08:21:02.469Z,95797.59
2022-09-03T08:22:07.178Z,95802.56
2022-09-03T08:23:09.240Z,95795.69
2022-09-03T08:24:21.039Z,95802.34
2022-09-03T08:25:23.121Z,95813.44
2022-09-03T08:26:27.737Z,95799.88
2022-09-03T08:27:30.237Z,95820.22
2022-09-03T08:28:39.266Z,95803.19
2022-09-03T08:29:43.931Z,95807.88
2022-09-03T08:30:45.958Z,95810.66
2022-09-03T08:31:51.332Z,95818.41
2022-09-03T08:32:53.766Z,95816.19
2022-09-03T08:33:59.769Z,95816.75
2022-09-03T08:35:02.145Z,95813.44
2022-09-03T08:36:08.397Z,95806.25
2022-09-03T08:37:13.255Z,95809.94
2022-09-03T08:38:17.857Z,95811.16
2022-09-03T08:39:25.175Z,95801.41
2022-09-03T08:40:27.336Z,95809.66
2022-09-03T08:41:39.204Z,95802.47
2022-09-03T08:42:50.446Z,95803.25
2022-09-03T08:44:12.588Z,95798.66
2022-09-03T08:45:17.826Z,95793.69
2022-09-03T08:46:26.139Z,95798.56
2022-09-03T08:47:37.061Z,95797.50
2022-09-03T08:48:39.631Z,95791.53
2022-09-03T08:49:49.974Z,95798.63
2022-09-03T08:51:00.098Z,95796.75
2022-09-03T08:52:08.916Z,95801.25
2022-09-03T08:53:18.780Z,95799.38
2022-09-03T08:54:27.564Z,95799.91
2022-09-03T08:55:42.834Z,95799.22
2022-09-03T08:56:46.432Z,95798.25
2022-09-03T08:57:53.981Z,95800.41
2022-09-03T08:58:56.410Z,95806.88
2022-09-03T09:00:01.224Z,95805.75
2022-09-03T09:01:13.777Z,95808.56
2022-09-03T09:02:29.710Z,95804.16
2022-09-03T09:03:42.650Z,95808.19
2022-09-03T09:05:01.894Z,95806.94
2022-09-03T09:06:11.634Z,95800.31
2022-09-03T09:07:23.387Z,95809.59
2022-09-03T09:08:35.543Z,95806.59
2022-09-03T09:09:50.085Z,95803.34
2022-09-03T09:11:02.678Z,95811.47
2022-09-03T09:12:25.041Z,95807.13
2022-09-03T09:13:41.257Z,95807.28
2022-09-03T09:14:53.594Z,95809.25
2022-09-03T09:16:09.637Z,95811.66
2022-09-03T09:17:39.462Z,95810.91
2022-09-03T09:18:59.470Z,95821.34
2022-09-03T09:20:13.869Z,95823.31
2022-09-03T09:21:25.137Z,95827.19
2022-09-03T09:22:38.431Z,95822.34
2022-09-03T09:23:44.766Z,95829.44
2022-09-03T09:24:57.518Z,95814.97
2022-09-03T09:26:02.963Z,95825.06
2022-09-03T09:27:12.817Z,95827.72
2022-09-03T09:28:22.711Z,95834.69
2022-09-03T09:29:27.749Z,95826.28
2022-09-03T09:30:35.979Z,95821.72
2022-09-03T09:31:38.468Z,95836.53
2022-09-03T09:32:43.142Z,95830.03
2022-09-03T09:33:45.667Z,95826.41
2022-09-03T09:34:52.544Z,95826.56
2022-09-03T09:35:54.919Z,95832.75
2022-09-03T09:37:01.786Z,95831.41
2022-09-03T09:38:03.859Z,95827.94
2022-09-03T09:39:11.768Z,95826.94
2022-09-03T09:40:25.754Z,95835.06
2022-09-03T09:41:30.476Z,95825.38
2022-09-03T09:42:32.658Z,95829.53
2022-09-03T09:43:38.416Z,95827.03
2022-09-03T09:44:42.799Z,95831.50
2022-09-03T09:45:49.497Z,95832.97
2022-09-03T09:46:54.827Z,95830.38
2022-09-03T09:47:59.960Z,95827.78
2022-09-03T09:49:05.075Z,95826.81
2022-09-03T09:50:25.097Z,95820.91
2022-09-03T09:51:33.693Z,95815.53
2022-09-03T09:52:35.868Z,95815.75
2022-09-03T09:53:40.682Z,95803.69
2022-09-03T09:54:45.979Z,95802.81
2022-09-03T09:55:58.852Z,95792.19
2022-09-03T09:57:06.375Z,95796.91
2022-09-03T09:58:14.289Z,95796.41
2022-09-03T09:59:22.411Z,95796.53
2022-09-03T10:00:24.517Z,95796.06
2022-09-03T10:01:30.520Z,95793.69
2022-09-03T10:02:35.590Z,95798.28
2022-09-03T10:03:50.721Z,95806.63
2022-09-03T10:04:53.021Z,95799.38
2022-09-03T10:06:26.552Z,95801.41
2022-09-03T10:07:31.448Z,95804.78
2022-09-03T10:08:36.081Z,95810.91
2022-09-03T10:09:40.736Z,95816.47
2022-09-03T10:10:49.809Z,95805.66
2022-09-03T10:12:11.137Z,95804.41
2022-09-03T10:13:19.707Z,95804.13
2022-09-03T10:14:26.770Z,95803.09
2022-09-03T10:15:38.636Z,95817.72
2022-09-03T10:16:49.148Z,95808.81
2022-09-03T10:18:03.908Z,95808.41
2022-09-03T10:19:11.643Z,95801.50
2022-09-03T10:20:31.142Z,95800.13
2022-09-03T10:21:44.045Z,95800.34
2022-09-03T10:22:56.221Z,95797.25
2022-09-03T10:24:08.993Z,95793.94
2022-09-03T10:25:11.084Z,95792.72
2022-09-03T10:26:19.537Z,95791.91
2022-09-03T10:27:24.225Z,95788.56
2022-09-03T10:28:33.398Z,95793.03
2022-09-03T10:29:36.087Z,95795.03
2022-09-03T10:30:56.541Z,95793.06
2022-09-03T10:32:10.247Z,95794.41
2022-09-03T10:33:20.351Z,95801.69
2022-09-03T10:34:37.099Z,95793.50
2022-09-03T10:35:49.266Z,95806.50
2022-09-03T10:37:03.331Z,95792.56
2022-09-03T10:38:11.290Z,95792.72
2022-09-03T10:39:24.545Z,95789.06
2022-09-03T10:40:35.096Z,95787.41
2022-09-03T10:41:56.012Z,95790.19
2022-09-03T10:43:16.984Z,95798.94
2022-09-03T10:44:48.910Z,95789.38
2022-09-03T10:46:01.286Z,95790.00
2022-09-03T10:47:23.000Z,95794.94
2022-09-03T10:48:45.646Z,95798.00
2022-09-03T10:50:01.855Z,95787.38
2022-09-03T10:51:08.005Z,95793.78
2022-09-03T10:52:19.889Z,95790.63
2022-09-03T10:53:34.766Z,95785.16
2022-09-03T10:54:52.520Z,95784.28
2022-09-03T10:56:00.722Z,95780.00
2022-09-03T10:57:15.727Z,95779.41
2022-09-03T10:58:42.199Z,95782.56
2022-09-03T11:00:04.384Z,95788.22
2022-09-03T11:01:14.878Z,95789.81
2022-09-03T11:02:32.478Z,95786.09
2022-09-03T11:04:03.347Z,95784.47
2022-09-03T11:05:09.483Z,95786.13
2022-09-03T11:06:19.949Z,95777.94
2022-09-03T11:07:25.870Z,95785.09
2022-09-03T11:08:34.514Z,95785.63
2022-09-03T11:09:43.516Z,95785.78
2022-09-03T11:10:50.684Z,95785.53
2022-09-03T11:12:00.292Z,95791.25
2022-09-03T11:13:06.721Z,95775.88
2022-09-03T11:14:21.075Z,95783.91
2022-09-03T11:15:28.773Z,95780.81
2022-09-03T11:16:36.792Z,95775.13
2022-09-03T11:17:43.000Z,95774.94
2022-09-03T11:18:52.527Z,95779.75
2022-09-03T11:19:59.601Z,95784.91
2022-09-03T11:21:12.109Z,95782.66
2022-09-03T11:22:20.891Z,95778.31
2022-09-03T11:23:28.053Z,95778.91
2022-09-03T11:24:37.403Z,95778.81
2022-09-03T11:25:44.281Z,95766.78
2022-09-03T11:26:55.574Z,95768.47
2022-09-03T11:28:11.811Z,95760.84
2022-09-03T11:29:24.113Z,95759.75
2022-09-03T11:30:32.744Z,95760.09
2022-09-03T11:31:48.961Z,95751.19
2022-09-03T11:32:56.081Z,95761.69
2022-09-03T11:34:08.314Z,95759.44
2022-09-03T11:35:16.207Z,95761.03
2022-09-03T11:36:31.600Z,95762.34
2022-09-03T11:37:34.557Z,95761.63
2022-09-03T11:41:15.886Z,95752.47
2022-09-03T11:42:31.069Z,95747.03
2022-09-03T11:43:37.071Z,95745.25
2022-09-03T11:44:51.365Z,95741.56
2022-09-03T11:46:07.024Z,95732.06
2022-09-03T11:47:23.979Z,95735.19
2022-09-03T11:48:39.098Z,95741.75
2022-09-03T11:49:50.904Z,95750.75
2022-09-03T11:50:54.376Z,95752.34
2022-09-03T11:52:03.569Z,95747.16
2022-09-03T11:53:11.019Z,95754.66
2022-09-03T11:54:29.423Z,95754.28
2022-09-03T11:55:43.352Z,95760.50
2022-09-03T11:56:50.677Z,95760.38
2022-09-03T11:57:55.458Z,95764.13
2022-09-03T11:59:15.949Z,95766.88
2022-09-03T12:00:25.244Z,95763.28
2022-09-03T12:01:28.500Z,95770.78
2022-09-03T12:02:36.263Z,95775.94
2022-09-03T12:03:43.798Z,95767.47
2022-09-03T12:04:54.736Z,95770.69
2022-09-03T12:06:19.996Z,95774.66
2022-09-03T12:07:46.042Z,95778.72
2022-09-03T12:09:08.785Z,95784.31
2022-09-03T12:10:26.880Z,95793.44
2022-09-03T12:11:44.374Z,95788.94
2022-09-03T12:12:58.502Z,95787.66
2022-09-03T12:14:13.894Z,95794.09
2022-09-03T12:15:34.680Z,95795.31
2022-09-03T12:16:55.611Z,95802.66
2022-09-03T12:18:14.530Z,95798.91
2022-09-03T12:19:28.020Z,95802.88
2022-09-03T12:20:30.359Z,95806.34
2022-09-03T12:21:41.353Z,95796.94
2022-09-03T12:22:43.718Z,95798.13
2022-09-03T12:23:50.562Z,95798.59
2022-09-03T12:24:52.804Z,95789.00
2022-09-03T12:25:57.733Z,95794.00
2022-09-03T12:27:05.796Z,95788.41
2022-09-03T12:28:13.511Z,95794.22
2022-09-03T12:29:27.995Z,95795.88
2022-09-03T12:30:33.132Z,95801.84
2022-09-03T12:31:50.108Z,95799.06
2022-09-03T12:33:05.026Z,95808.50
2022-09-03T12:34:15.243Z,95799.03
2022-09-03T12:36:46.046Z,95794.03
2022-09-03T12:38:08.792Z,95797.28
2022-09-03T12:39:17.434Z,95806.13
2022-09-03T12:40:21.651Z,95809.78
2022-09-03T12:41:31.211Z,95811.06
2022-09-03T12:42:34.526Z,95816.28
2022-09-03T12:43:39.745Z,95810.16
2022-09-03T12:44:43.126Z,95804.69
2022-09-03T12:48:44.155Z,95815.88
2022-09-03T12:49:47.737Z,95823.75
2022-09-03T12:52:32.534Z,95814.41
2022-09-03T12:53:34.804Z,95821.44
2022-09-03T12:54:45.786Z,95820.09
2022-09-03T12:55:55.200Z,95823.28
2022-09-03T12:57:02.150Z,95824.78
2022-09-03T12:58:14.042Z,95824.63
2022-09-03T12:59:19.792Z,95826.38
2022-09-03T13:00:25.477Z,95829.16
2022-09-03T13:01:33.867Z,95822.69
2022-09-03T13:02:46.412Z,95826.44
2022-09-03T13:03:54.861Z,95829.88
2022-09-03T13:05:00.022Z,95835.72
2022-09-03T13:06:08.228Z,95830.31
2022-09-03T13:07:19.248Z,95847.63
2022-09-03T13:08:23.788Z,95835.72
2022-09-03T13:09:32.256Z,95837.56
2022-09-03T13:10:39.031Z,95829.25
2022-09-03T13:11:45.269Z,95843.47
2022-09-03T13:12:53.001Z,95853.75
2022-09-03T13:14:05.610Z,95861.28
2022-09-03T13:15:12.354Z,95854.41
2022-09-03T13:16:48.413Z,95850.38
2022-09-03T13:18:16.163Z,95857.63
2022-09-03T13:19:25.949Z,95858.66
2022-09-03T13:20:41.480Z,95861.06
2022-09-03T13:21:51.427Z,95873.16
2022-09-03T13:23:10.908Z,95869.78
2022-09-03T13:24:40.854Z,95869.28
2022-09-03T13:25:56.845Z,95870.06
2022-09-03T13:27:08.484Z,95865.03
2022-09-03T13:28:27.817Z,95874.63
2022-09-03T13:29:52.670Z,95882.28
2022-09-03T13:31:02.538Z,95878.81
2022-09-03T13:32:17.117Z,95872.28
2022-09-03T13:33:30.299Z,95863.75
2022-09-03T13:34:36.044Z,95875.53
2022-09-03T13:35:48.277Z,95877.09
2022-09-03T13:36:54.616Z,95870.94
2022-09-03T13:38:06.092Z,95877.69
2022-09-03T13:39:20.635Z,95874.03
2022-09-03T13:40:30.686Z,95874.84
2022-09-03T13:41:38.764Z,95871.16
2022-09-03T13:42:47.573Z,95877.59
2022-09-03T13:44:05.353Z,95876.78
2022-09-03T13:45:21.073Z,95875.69
2022-09-03T13:46:31.432Z,95877.47
2022-09-03T13:48:02.454Z,95875.94
2022-09-03T13:49:32.953Z,95874.50
2022-09-03T13:50:45.568Z,95876.53
2022-09-03T13:51:52.144Z,95874.16
2022-09-03T13:53:04.660Z,95875.94
2022-09-03T13:54:26.316Z,95875.22
2022-09-03T13:55:49.030Z,95868.53
2022-09-03T13:56:58.471Z,95876.53
2022-09-03T13:58:11.003Z,95879.72
2022-09-03T13:59:20.511Z,95878.31
2022-09-03T14:00:33.041Z,95871.28
2022-09-03T14:01:52.296Z,95874.00
2022-09-03T14:03:01.330Z,95880.22
2022-09-03T14:04:11.666Z,95877.59
2022-09-03T14:05:23.891Z,95884.13
2022-09-03T14:06:45.210Z,95884.47
2022-09-03T14:08:00.266Z,95890.19
2022-09-03T14:09:14.806Z,95884.03
2022-09-03T14:10:25.433Z,95885.69
2022-09-03T14:11:35.493Z,95879.00
2022-09-03T14:12:45.782Z,95876.16
2022-09-03T14:14:05.452Z,95875.94
2022-09-03T14:15:16.111Z,95879.63
2022-09-03T14:16:34.012Z,95879.00
2022-09-03T14:17:47.074Z,95868.16
2022-09-03T14:18:57.269Z,95866.50
2022-09-03T14:20:09.397Z,95869.88
2022-09-03T14:21:17.250Z,95872.78
2022-09-03T14:22:30.497Z,95866.31
2022-09-03T14:23:41.598Z,95863.19
2022-09-03T14:24:51.963Z,95867.34
2022-09-03T14:25:54.777Z,95854.72
2022-09-03T14:27:02.060Z,95858.16
2022-09-03T14:28:16.293Z,95850.06
2022-09-03T14:29:25.952Z,95851.56
2022-09-03T14:30:41.536Z,95840.34
2022-09-03T14:32:18.176Z,95845.81